Terminal Aerodrome Forecast
Issued by NWS Billings, MT

Home | Current Version | Previous Version | Text Only | Print | Product List | Glossary On
Versions: 1 2 3 4 5 6 7 8 9 10 11 12 13 14
000
FTUS45 KBYZ 251135
TAFSHR
TAF
KSHR 251135Z 2512/2612 32008KT P6SM VCSH SCT022 BKN060
     FM251800 32007KT P6SM VCTS FEW050CB OVC090
     FM260200 VRB05KT P6SM SCT100=

USA.gov is the U.S. government's official web portal to all federal, state and local government web resources and services.